Time;durP1;ratioP1;P1;durP2;ratioP2;P2;SDS_P1;SDS_P2;PMS_P1;PMS_P2;Temp;Humidity;BMP_temperature;BMP_pressure;BME280_temperature;BME280_humidity;BME280_pressure;Samples;Min_cycle;Max_cycle;Signal;HPM_P1;HPM_P2
2022/06/02 00:01:37;;;;;;;3.40;1.90;;;11.20;99.90;;;;;;5091869;28;20270;-59
2022/06/02 00:04:19;;;;;;;4.50;1.90;;;11.10;99.90;;;;;;5091476;28;20180;-58
2022/06/02 00:06:52;;;;;;;4.00;1.83;;;10.90;99.90;;;;;;5090994;28;20248;-59
2022/06/02 00:09:39;;;;;;;6.30;1.93;;;11.00;99.90;;;;;;5091618;28;20168;-59
2022/06/02 00:12:13;;;;;;;4.20;2.07;;;10.80;99.90;;;;;;5091530;28;20183;-59
2022/06/02 00:14:48;;;;;;;5.67;1.60;;;11.10;99.90;;;;;;5091465;28;20258;-59
2022/06/02 00:17:31;;;;;;;4.37;1.90;;;9.90;99.90;;;;;;5091302;28;20171;-60
2022/06/02 00:20:04;;;;;;;5.17;1.60;;;11.00;99.90;;;;;;5091414;28;20254;-60
2022/06/02 00:22:33;;;;;;;2.90;1.87;;;10.90;99.90;;;;;;5091323;28;20183;-59
2022/06/02 00:25:20;;;;;;;5.70;2.17;;;11.00;99.90;;;;;;5091231;28;20187;-59
2022/06/02 00:28:14;;;;;;;4.00;1.90;;;10.90;99.90;;;;;;5091183;28;20183;-59
2022/06/02 00:30:55;;;;;;;2.67;1.90;;;10.90;99.90;;;;;;5091027;28;20203;-59
2022/06/02 00:33:23;;;;;;;4.57;2.20;;;10.90;99.90;;;;;;5091017;28;20180;-59
2022/06/02 00:36:07;;;;;;;5.40;2.13;;;11.00;99.90;;;;;;5091021;28;20270;-59
2022/06/02 00:38:37;;;;;;;12.67;3.47;;;10.90;99.90;;;;;;5091053;28;20411;-59
2022/06/02 00:41:27;;;;;;;9.30;3.43;;;10.90;99.90;;;;;;5090974;28;20204;-59
2022/06/02 00:44:02;;;;;;;9.97;4.50;;;10.80;99.90;;;;;;5090831;28;20628;-59
2022/06/02 00:46:34;;;;;;;7.40;4.03;;;10.90;99.90;;;;;;5090879;28;20179;-60
2022/06/02 00:49:20;;;;;;;9.50;4.30;;;10.60;99.90;;;;;;5091199;28;20252;-59
2022/06/02 00:52:09;;;;;;;13.27;4.70;;;10.90;99.90;;;;;;5090825;28;20731;-60
2022/06/02 00:57:40;;;;;;;10.27;5.57;;;10.80;99.90;;;;;;5090857;28;20167;-59
2022/06/02 01:00:15;;;;;;;10.80;4.07;;;10.70;99.90;;;;;;5090759;28;20644;-59
2022/06/02 01:02:53;;;;;;;8.77;3.70;;;10.70;99.90;;;;;;5090760;28;20171;-59
2022/06/02 01:05:47;;;;;;;7.27;3.23;;;10.70;99.90;;;;;;5090959;28;20221;-59
2022/06/02 01:08:36;;;;;;;3.27;2.40;;;10.80;99.90;;;;;;5082493;28;20238;-59
2022/06/02 01:11:19;;;;;;;4.43;2.43;;;10.80;99.90;;;;;;5079752;28;20223;-59
2022/06/02 01:14:19;;;;;;;4.13;2.47;;;10.90;99.90;;;;;;5090643;28;20160;-59
2022/06/02 01:16:50;;;;;;;4.20;2.93;;;10.80;99.90;;;;;;5090631;28;20199;-59
2022/06/02 01:19:39;;;;;;;12.33;6.50;;;10.70;99.90;;;;;;5093755;28;20215;-59
2022/06/02 01:22:05;;;;;;;8.80;4.27;;;;;;;;;;5094746;28;20247;-59
2022/06/02 01:24:31;;;;;;;7.00;4.37;;;;;;;;;;5094648;28;20273;-59
2022/06/02 01:27:43;;;;;;;7.80;4.67;;;10.40;99.90;;;;;;5094573;28;20669;-59
2022/06/02 01:30:38;;;;;;;10.03;4.17;;;10.80;99.90;;;;;;5088886;28;20207;-59
2022/06/02 01:33:38;;;;;;;5.17;3.77;;;10.40;99.90;;;;;;5094305;28;20184;-59
2022/06/02 01:36:28;;;;;;;8.17;3.70;;;10.20;99.90;;;;;;5094402;28;20168;-59
2022/06/02 01:39:10;;;;;;;5.93;3.60;;;10.40;99.90;;;;;;5094405;28;20168;-59
2022/06/02 01:41:41;;;;;;;6.30;4.13;;;10.30;99.90;;;;;;5094378;28;20183;-59
2022/06/02 01:44:18;;;;;;;10.30;4.00;;;10.30;99.90;;;;;;5094320;28;20176;-59
2022/06/02 01:46:50;;;;;;;6.73;4.10;;;10.20;99.90;;;;;;5094101;28;20178;-59
2022/06/02 01:49:27;;;;;;;9.70;4.17;;;10.20;99.90;;;;;;5094519;28;20259;-59
2022/06/02 01:52:22;;;;;;;8.43;3.67;;;10.20;99.90;;;;;;5094039;28;20203;-59
2022/06/02 01:55:09;;;;;;;6.17;3.93;;;10.20;99.90;;;;;;5091594;28;20184;-59
2022/06/02 01:57:46;;;;;;;8.67;4.23;;;10.10;99.90;;;;;;5093963;28;20183;-59
2022/06/02 02:00:21;;;;;;;7.60;4.00;;;10.10;99.90;;;;;;5093903;28;20648;-59
2022/06/02 02:02:59;;;;;;;8.90;4.10;;;10.10;99.90;;;;;;5093856;28;20171;-59
2022/06/02 02:05:33;;;;;;;7.47;3.77;;;10.10;99.90;;;;;;5093805;28;20176;-59
2022/06/02 02:08:14;;;;;;;7.33;4.10;;;10.00;99.90;;;;;;5093752;28;20175;-59
2022/06/02 02:11:04;;;;;;;8.50;3.90;;;10.00;99.90;;;;;;5093942;28;20675;-59
2022/06/02 02:13:54;;;;;;;6.43;3.87;;;10.10;99.90;;;;;;5094317;28;20175;-59
2022/06/02 02:17:01;;;;;;;9.10;4.00;;;9.90;99.90;;;;;;5093786;28;20428;-60
2022/06/02 02:19:41;;;;;;;9.37;3.97;;;8.30;99.90;;;;;;5073432;28;20806;-59
2022/06/02 02:22:18;;;;;;;6.10;3.50;;;9.80;99.90;;;;;;5093522;28;20176;-59
2022/06/02 02:25:14;;;;;;;8.53;3.90;;;9.80;99.90;;;;;;5093579;28;20249;-59
2022/06/02 02:28:22;;;;;;;8.13;4.20;;;;;;;;;;5092769;28;20176;-59
2022/06/02 02:30:43;;;;;;;7.90;4.23;;;9.90;99.90;;;;;;5089810;28;20219;-60
2022/06/02 02:33:46;;;;;;;7.40;3.93;;;9.90;99.90;;;;;;5093336;28;20163;-59
2022/06/02 02:36:39;;;;;;;9.47;4.23;;;9.80;99.90;;;;;;5093214;28;20289;-59
2022/06/02 02:39:26;;;;;;;12.43;4.33;;;10.10;99.90;;;;;;5093257;28;20698;-59
2022/06/02 02:42:01;;;;;;;7.70;4.77;;;9.70;99.90;;;;;;5093240;28;20160;-59
2022/06/02 02:44:46;;;;;;;6.43;4.30;;;9.70;99.90;;;;;;5093251;28;20216;-59
2022/06/02 02:47:20;;;;;;;10.63;4.10;;;9.70;99.90;;;;;;5093226;28;20279;-59
2022/06/02 02:49:51;;;;;;;7.73;4.67;;;9.60;99.90;;;;;;5093112;28;20233;-59
2022/06/02 02:52:27;;;;;;;8.03;4.57;;;8.60;99.90;;;;;;5093109;28;20192;-59
2022/06/02 02:55:01;;;;;;;11.43;4.70;;;9.50;99.90;;;;;;5092978;28;20200;-59
2022/06/02 02:58:07;;;;;;;8.90;4.30;;;9.50;99.90;;;;;;5093014;28;20255;-59
2022/06/02 03:00:41;;;;;;;9.90;4.33;;;9.40;99.90;;;;;;5092998;28;20164;-59
2022/06/02 03:03:17;;;;;;;7.70;4.83;;;9.30;99.90;;;;;;5092862;28;20172;-59
2022/06/02 03:06:02;;;;;;;9.57;4.27;;;9.50;99.90;;;;;;5092701;28;20224;-59
2022/06/02 03:08:51;;;;;;;7.73;4.60;;;9.40;99.90;;;;;;5093056;28;20233;-59
2022/06/02 03:11:39;;;;;;;8.10;4.40;;;9.30;99.90;;;;;;5092823;28;20220;-59
2022/06/02 03:14:35;;;;;;;7.93;4.50;;;9.00;99.90;;;;;;5092513;28;20190;-60
2022/06/02 03:17:26;;;;;;;8.93;4.50;;;9.20;99.90;;;;;;5092613;28;20168;-59
2022/06/02 03:20:27;;;;;;;7.63;4.60;;;9.30;99.90;;;;;;5092373;28;20243;-59
2022/06/02 03:23:14;;;;;;;8.20;4.93;;;9.20;99.90;;;;;;5088518;28;20212;-60
2022/06/02 03:25:48;;;;;;;9.77;5.07;;;9.20;99.90;;;;;;5092643;28;20179;-58
2022/06/02 03:28:44;;;;;;;7.77;4.73;;;9.10;99.90;;;;;;5092388;28;20182;-58
2022/06/02 03:31:21;;;;;;;10.87;5.07;;;9.20;99.90;;;;;;5092331;28;20215;-59
2022/06/02 03:34:07;;;;;;;9.53;5.23;;;9.10;99.90;;;;;;5092556;28;20184;-58
2022/06/02 03:36:52;;;;;;;8.67;4.57;;;9.30;99.90;;;;;;5092351;28;20176;-58
2022/06/02 03:39:34;;;;;;;10.57;5.60;;;9.30;99.90;;;;;;5092101;28;20236;-58
2022/06/02 03:42:06;;;;;;;6.60;4.67;;;9.40;99.90;;;;;;5091568;28;20237;-58
2022/06/02 03:44:32;;;;;;;9.97;5.20;;;;;;;;;;5092143;28;20176;-58
2022/06/02 03:47:26;;;;;;;12.33;5.47;;;9.20;99.90;;;;;;5092156;28;20651;-60
2022/06/02 03:50:22;;;;;;;11.20;5.43;;;9.20;99.90;;;;;;5092213;28;20172;-59
2022/06/02 03:53:05;;;;;;;8.60;5.60;;;9.10;99.90;;;;;;5091933;28;20458;-59
2022/06/02 03:56:01;;;;;;;10.93;4.93;;;9.30;99.90;;;;;;5091832;28;20270;-59
2022/06/02 03:58:54;;;;;;;8.57;5.30;;;9.00;99.90;;;;;;5092026;28;20195;-59
2022/06/02 04:01:32;;;;;;;9.10;5.07;;;9.00;99.90;;;;;;5091790;28;20250;-59
2022/06/02 04:04:15;;;;;;;9.80;5.23;;;9.10;99.90;;;;;;5091707;28;20168;-59
2022/06/02 04:07:24;;;;;;;7.90;5.17;;;9.70;99.90;;;;;;5091910;28;20200;-59
2022/06/02 04:09:50;;;;;;;12.00;5.33;;;;;;;;;;5091690;28;20168;-59
2022/06/02 04:15:26;;;;;;;14.57;6.10;;;9.00;99.90;;;;;;5091567;28;20190;-59
2022/06/02 04:18:06;;;;;;;8.80;5.27;;;8.90;99.90;;;;;;5091536;28;20628;-59
2022/06/02 04:20:57;;;;;;;8.53;5.57;;;8.90;99.90;;;;;;5089956;28;20224;-59
2022/06/02 04:23:41;;;;;;;9.73;5.77;;;8.90;99.90;;;;;;5091578;28;20168;-59
2022/06/02 04:26:24;;;;;;;12.73;5.87;;;8.90;99.90;;;;;;5091671;28;20178;-59
2022/06/02 04:29:20;;;;;;;10.30;5.93;;;8.90;99.90;;;;;;5091298;28;20167;-59
2022/06/02 04:32:14;;;;;;;10.03;5.60;;;8.90;99.90;;;;;;5091157;28;20211;-59
2022/06/02 04:35:07;;;;;;;9.63;5.80;;;8.80;99.90;;;;;;5091347;28;20542;-59
2022/06/02 04:37:50;;;;;;;10.90;4.87;;;8.90;99.90;;;;;;5091230;28;20191;-59
2022/06/02 04:40:54;;;;;;;10.97;5.33;;;9.00;99.90;;;;;;5091149;28;20176;-59
2022/06/02 04:43:57;;;;;;;11.10;5.67;;;9.00;99.90;;;;;;5091123;28;20194;-59
2022/06/02 04:46:55;;;;;;;10.07;5.27;;;9.10;99.90;;;;;;5091035;28;20164;-59
2022/06/02 04:49:21;;;;;;;7.33;5.00;;;;;;;;;;5090965;28;20179;-59
2022/06/02 04:52:21;;;;;;;10.77;5.60;;;9.00;99.90;;;;;;5090751;28;20203;-59
2022/06/02 04:55:19;;;;;;;9.00;5.60;;;9.10;99.90;;;;;;5089762;28;20188;-59
2022/06/02 04:58:21;;;;;;;8.37;5.30;;;9.20;99.90;;;;;;5090615;28;20179;-59
2022/06/02 05:01:07;;;;;;;9.80;5.27;;;9.10;99.90;;;;;;5091071;28;20172;-59
2022/06/02 05:03:51;;;;;;;8.60;4.90;;;9.60;99.90;;;;;;5090926;28;20176;-60
2022/06/02 05:06:44;;;;;;;9.87;5.50;;;9.50;99.90;;;;;;5091076;28;20167;-60
2022/06/02 05:09:33;;;;;;;10.20;5.50;;;9.70;99.90;;;;;;5090808;28;20184;-60
2022/06/02 05:12:15;;;;;;;10.23;5.47;;;9.50;99.90;;;;;;5090582;28;20230;-60
2022/06/02 05:14:59;;;;;;;14.17;5.57;;;9.50;99.90;;;;;;5090841;28;20221;-60
2022/06/02 05:17:55;;;;;;;9.77;5.43;;;9.60;99.90;;;;;;5091063;28;20264;-60
2022/06/02 05:20:44;;;;;;;8.60;5.30;;;9.60;99.90;;;;;;5090608;28;20227;-59
2022/06/02 05:23:10;;;;;;;9.60;5.50;;;9.50;99.90;;;;;;5090886;28;20636;-60
2022/06/02 05:25:38;;;;;;;11.30;5.37;;;9.60;99.90;;;;;;5090685;28;20168;-59
2022/06/02 05:28:04;;;;;;;9.43;5.53;;;;;;;;;;5090690;28;20667;-59
2022/06/02 05:30:56;;;;;;;9.33;5.53;;;9.80;99.90;;;;;;5090690;28;20200;-59
2022/06/02 05:33:58;;;;;;;9.53;5.97;;;9.80;99.90;;;;;;5090736;28;20240;-59
2022/06/02 05:36:41;;;;;;;7.57;5.60;;;10.10;99.90;;;;;;5090491;28;20180;-60
2022/06/02 05:39:07;;;;;;;11.53;5.67;;;;;;;;;;5090633;28;20219;-60
2022/06/02 05:41:36;;;;;;;8.97;5.50;;;10.00;99.90;;;;;;5090586;28;20184;-59
2022/06/02 05:44:10;;;;;;;8.67;6.00;;;10.90;99.90;;;;;;5090514;28;20509;-59
2022/06/02 05:46:36;;;;;;;8.30;5.50;;;;;;;;;;5089148;28;20644;-60
2022/06/02 05:49:09;;;;;;;9.37;5.47;;;10.30;99.90;;;;;;5090776;28;20216;-60
2022/06/02 05:51:41;;;;;;;12.37;5.80;;;10.40;99.90;;;;;;5090440;28;20223;-60
2022/06/02 05:54:31;;;;;;;12.03;5.80;;;10.40;99.90;;;;;;5090660;28;20168;-60
2022/06/02 05:57:14;;;;;;;8.40;5.60;;;10.50;99.90;;;;;;5090682;28;20168;-60
2022/06/02 06:00:05;;;;;;;10.23;5.33;;;10.40;99.90;;;;;;5090875;28;20280;-60
2022/06/02 06:02:45;;;;;;;9.53;5.83;;;10.70;99.90;;;;;;5090520;28;20248;-60
2022/06/02 06:05:29;;;;;;;9.57;6.03;;;10.70;99.90;;;;;;5093465;28;20237;-59
2022/06/02 06:08:29;;;;;;;8.47;5.67;;;10.80;99.90;;;;;;5094313;28;20179;-60
2022/06/02 06:11:07;;;;;;;8.87;5.97;;;11.10;99.90;;;;;;5094048;28;20216;-60
2022/06/02 06:14:24;;;;;;;9.60;5.90;;;11.20;99.90;;;;;;5094262;28;20495;-60
2022/06/02 06:17:00;;;;;;;8.93;5.77;;;11.10;99.90;;;;;;5081542;28;20187;-60
2022/06/02 06:19:59;;;;;;;10.67;5.77;;;11.20;99.90;;;;;;5093737;28;20211;-59
2022/06/02 06:22:39;;;;;;;9.30;6.20;;;11.40;99.90;;;;;;5093866;28;20207;-60
2022/06/02 06:25:24;;;;;;;7.83;5.43;;;11.60;99.90;;;;;;5093812;28;20194;-60
2022/06/02 06:28:13;;;;;;;6.10;4.77;;;11.70;99.90;;;;;;5093536;28;20172;-60
2022/06/02 06:31:00;;;;;;;7.57;5.40;;;11.70;99.90;;;;;;5093691;28;20196;-60
2022/06/02 06:33:37;;;;;;;10.37;5.30;;;11.60;99.90;;;;;;5093505;28;20648;-60
2022/06/02 06:36:28;;;;;;;6.27;4.73;;;11.90;99.90;;;;;;5093534;28;20168;-60
2022/06/02 06:39:17;;;;;;;6.90;4.93;;;11.80;99.90;;;;;;5082893;28;20199;-60
2022/06/02 06:42:01;;;;;;;5.87;4.73;;;12.00;99.90;;;;;;5089343;28;20237;-60
2022/06/02 06:44:33;;;;;;;8.87;5.20;;;12.20;99.90;;;;;;5093347;28;20863;-60
2022/06/02 06:47:12;;;;;;;7.50;4.90;;;11.80;99.90;;;;;;5093472;28;20172;-60
2022/06/02 06:50:04;;;;;;;10.80;5.20;;;12.50;99.90;;;;;;5093348;28;20251;-60
2022/06/02 06:52:38;;;;;;;6.97;4.67;;;12.40;99.90;;;;;;5089986;28;20279;-60
2022/06/02 06:55:14;;;;;;;6.00;4.70;;;12.50;99.90;;;;;;5093103;28;20182;-60
2022/06/02 06:58:16;;;;;;;6.97;4.83;;;12.50;99.90;;;;;;5091877;28;20584;-60
2022/06/02 07:00:49;;;;;;;8.03;4.63;;;12.80;99.90;;;;;;5086011;28;20183;-60
2022/06/02 07:03:27;;;;;;;6.97;4.50;;;12.50;99.90;;;;;;5092959;28;20172;-60
2022/06/02 07:06:01;;;;;;;8.20;4.80;;;13.10;99.90;;;;;;5093032;28;20255;-60
2022/06/02 07:08:29;;;;;;;5.53;4.38;;;13.10;99.90;;;;;;5093132;28;20624;-58
2022/06/02 07:11:07;;;;;;;9.60;5.10;;;13.10;99.90;;;;;;5092619;28;20277;-58
2022/06/02 07:13:47;;;;;;;5.47;4.20;;;13.20;99.90;;;;;;5092636;28;20172;-58
2022/06/02 07:16:34;;;;;;;5.70;4.40;;;13.50;99.90;;;;;;5092614;28;20258;-58
2022/06/02 07:19:17;;;;;;;9.23;4.50;;;13.30;99.90;;;;;;5092449;28;20179;-59
2022/06/02 07:21:50;;;;;;;6.18;4.32;;;13.70;99.90;;;;;;5092577;28;20176;-58
2022/06/02 07:24:43;;;;;;;5.60;4.55;;;13.60;99.90;;;;;;5092529;28;20222;-59
2022/06/02 07:27:33;;;;;;;6.85;4.63;;;13.70;99.90;;;;;;5092428;28;20175;-59
2022/06/02 07:30:29;;;;;;;6.40;5.07;;;13.90;99.90;;;;;;5092141;28;20629;-59
2022/06/02 07:33:26;;;;;;;7.03;4.43;;;13.80;99.90;;;;;;5092513;28;20211;-59
2022/06/02 07:36:20;;;;;;;6.45;3.90;;;14.00;99.90;;;;;;5092229;28;20184;-59
2022/06/02 07:39:04;;;;;;;7.35;4.40;;;18.00;99.90;;;;;;5092406;28;20168;-59
2022/06/02 07:41:35;;;;;;;7.20;4.50;;;14.40;99.90;;;;;;5092398;28;20179;-59
2022/06/02 07:44:27;;;;;;;6.43;4.07;;;14.50;99.90;;;;;;5092224;28;20646;-58
2022/06/02 07:47:16;;;;;;;9.30;3.90;;;14.30;99.90;;;;;;5092047;28;20632;-58
2022/06/02 07:50:04;;;;;;;8.55;4.03;;;14.70;99.90;;;;;;5091945;28;20183;-59
2022/06/02 07:52:49;;;;;;;6.10;4.28;;;14.70;99.90;;;;;;5091940;28;20184;-58
2022/06/02 07:55:15;;;;;;;6.80;3.80;;;;;;;;;;5091824;28;20194;-58
2022/06/02 07:57:49;;;;;;;5.38;3.78;;;14.90;99.90;;;;;;5091854;28;20643;-58
2022/06/02 08:00:20;;;;;;;6.03;3.70;;;15.10;99.90;;;;;;5091738;28;20662;-59
2022/06/02 08:03:23;;;;;;;8.18;4.03;;;15.20;99.90;;;;;;5091867;28;20175;-58
2022/06/02 08:06:06;;;;;;;4.70;3.33;;;15.20;99.90;;;;;;5091971;28;20167;-58
2022/06/02 08:08:32;;;;;;;8.23;3.85;;;15.20;99.90;;;;;;5091589;28;20539;-59
2022/06/02 08:11:41;;;;;;;8.02;4.18;;;15.50;99.90;;;;;;5091594;28;20260;-57
2022/06/02 08:14:39;;;;;;;5.65;3.63;;;15.40;99.90;;;;;;5086290;28;20235;-58
2022/06/02 08:17:51;;;;;;;7.60;4.38;;;15.30;99.90;;;;;;5079038;28;20192;-60
2022/06/02 08:20:22;;;;;;;7.93;3.67;;;15.90;99.90;;;;;;5087106;28;20307;-58
2022/06/02 08:22:48;;;;;;;5.47;2.65;;;16.20;99.90;;;;;;5091414;28;20632;-57
2022/06/02 08:25:22;;;;;;;7.07;3.35;;;16.40;99.90;;;;;;5091287;28;20183;-59
2022/06/02 08:28:00;;;;;;;10.18;2.88;;;16.60;99.90;;;;;;5090835;28;20195;-58
2022/06/02 08:31:00;;;;;;;6.95;3.10;;;16.40;99.90;;;;;;5091113;28;20207;-58
2022/06/02 08:33:38;;;;;;;6.35;2.70;;;16.90;99.90;;;;;;5080580;28;20180;-58
2022/06/02 08:36:10;;;;;;;6.20;2.67;;;16.80;99.90;;;;;;5090964;28;20645;-58
2022/06/02 08:39:04;;;;;;;3.75;2.17;;;17.20;99.90;;;;;;5091144;28;20176;-59
2022/06/02 08:41:53;;;;;;;3.03;2.30;;;17.30;99.90;;;;;;5091089;28;20171;-59
2022/06/02 08:45:07;;;;;;;7.47;2.10;;;17.60;99.90;;;;;;5080422;28;20217;-59
2022/06/02 08:47:54;;;;;;;5.70;2.15;;;18.00;99.90;;;;;;5085733;28;20190;-59
2022/06/02 08:51:00;;;;;;;6.63;2.20;;;18.60;99.90;;;;;;5090836;28;20252;-58
2022/06/02 08:53:50;;;;;;;2.05;1.70;;;18.60;99.90;;;;;;5090837;28;20175;-59
2022/06/02 08:56:53;;;;;;;2.05;1.85;;;18.50;99.90;;;;;;5090818;28;20723;-59
2022/06/02 08:59:21;;;;;;;6.47;1.77;;;18.80;99.90;;;;;;5090688;28;20180;-59
2022/06/02 09:02:30;;;;;;;3.28;1.73;;;19.20;99.90;;;;;;5090734;28;20262;-59
2022/06/02 09:05:11;;;;;;;2.33;1.67;;;19.70;99.90;;;;;;5090764;28;20160;-59
2022/06/02 09:07:39;;;;;;;2.88;1.70;;;19.70;99.90;;;;;;5090679;28;20643;-59
2022/06/02 09:10:39;;;;;;;2.47;1.60;;;19.20;99.90;;;;;;5090727;28;20168;-59
2022/06/02 09:13:35;;;;;;;1.92;1.58;;;20.20;99.90;;;;;;5090751;28;20176;-59
2022/06/02 09:16:17;;;;;;;4.40;1.70;;;20.30;99.90;;;;;;5090629;28;20168;-59
2022/06/02 09:19:13;;;;;;;1.58;1.25;;;20.60;99.90;;;;;;5090411;28;20225;-59
2022/06/02 09:22:03;;;;;;;2.75;1.88;;;20.00;99.90;;;;;;5090696;28;20318;-59
2022/06/02 09:24:47;;;;;;;4.85;1.40;;;21.00;99.90;;;;;;5090477;28;20225;-59
2022/06/02 09:27:47;;;;;;;2.50;1.80;;;20.80;99.90;;;;;;5090552;28;20168;-59
2022/06/02 09:30:39;;;;;;;3.40;2.00;;;20.50;99.90;;;;;;5089323;28;20703;-59
2022/06/02 09:33:37;;;;;;;5.88;1.75;;;20.60;99.90;;;;;;5090185;28;20521;-60
2022/06/02 09:36:40;;;;;;;4.22;2.40;;;20.80;99.90;;;;;;5090583;28;20192;-59
2022/06/02 09:39:33;;;;;;;3.88;1.65;;;20.80;99.90;;;;;;5091874;28;20172;-59
2022/06/02 09:42:17;;;;;;;3.58;1.60;;;20.80;99.90;;;;;;5094452;28;20170;-59
2022/06/02 09:45:20;;;;;;;3.10;1.83;;;20.30;99.90;;;;;;5094319;28;20693;-59
2022/06/02 09:48:08;;;;;;;1.98;1.73;;;20.10;99.90;;;;;;5094295;28;20175;-58
2022/06/02 09:50:57;;;;;;;3.72;1.73;;;20.50;99.90;;;;;;5094125;28;20204;-59
2022/06/02 09:53:44;;;;;;;3.35;1.60;;;20.10;99.90;;;;;;5094191;28;20203;-58
2022/06/02 09:56:35;;;;;;;4.25;1.45;;;19.50;99.90;;;;;;5092807;28;20160;-59
2022/06/02 09:59:28;;;;;;;2.95;1.50;;;19.90;99.90;;;;;;5094033;28;20164;-59
2022/06/02 10:02:09;;;;;;;5.38;1.85;;;20.20;99.90;;;;;;5094017;28;20175;-59
2022/06/02 10:04:58;;;;;;;1.63;1.38;;;17.60;99.90;;;;;;5093882;28;20488;-59
2022/06/02 10:07:38;;;;;;;3.28;1.80;;;20.20;99.90;;;;;;5093858;28;20172;-59
2022/06/02 10:10:39;;;;;;;4.47;1.75;;;18.90;99.90;;;;;;5093694;28;20172;-59
2022/06/02 10:13:46;;;;;;;5.70;1.67;;;21.60;99.90;;;;;;5089092;28;20546;-59
2022/06/02 10:16:36;;;;;;;2.50;1.40;;;22.00;99.90;;;;;;5083109;28;20214;-58
2022/06/02 10:19:11;;;;;;;1.70;1.20;;;21.50;99.90;;;;;;5093436;28;20225;-58
2022/06/02 10:21:46;;;;;;;2.60;1.17;;;22.30;99.90;;;;;;5093522;28;20220;-58
2022/06/02 10:25:05;;;;;;;2.17;1.40;;;22.60;99.90;;;;;;5093856;28;20183;-59
2022/06/02 10:28:15;;;;;;;1.27;1.10;;;21.10;99.90;;;;;;5088743;28;20272;-58
2022/06/02 10:31:02;;;;;;;1.25;0.93;;;22.50;99.90;;;;;;5084618;28;20225;-58
2022/06/02 10:33:42;;;;;;;2.20;1.52;;;23.10;99.90;;;;;;5093345;28;20170;-58
2022/06/02 10:36:48;;;;;;;3.15;1.50;;;23.50;99.90;;;;;;5093529;28;20179;-59
2022/06/02 10:39:38;;;;;;;2.40;1.50;;;23.00;99.90;;;;;;5093462;28;20164;-59
2022/06/02 10:42:11;;;;;;;1.75;1.25;;;22.00;99.90;;;;;;5093166;28;20225;-58
2022/06/02 10:45:09;;;;;;;2.72;1.30;;;18.60;99.90;;;;;;5093335;28;20263;-57
2022/06/02 10:47:57;;;;;;;1.88;1.25;;;20.30;99.90;;;;;;5088649;28;20183;-58
2022/06/02 10:50:48;;;;;;;2.58;1.38;;;19.90;99.90;;;;;;5082176;28;20218;-58
2022/06/02 10:53:41;;;;;;;2.35;1.20;;;20.00;99.90;;;;;;5093059;28;20535;-58
2022/06/02 10:56:28;;;;;;;1.85;1.10;;;19.90;99.90;;;;;;5093103;28;20188;-58
2022/06/02 10:59:22;;;;;;;2.72;1.40;;;19.70;99.90;;;;;;5093005;28;20164;-58
2022/06/02 11:02:06;;;;;;;1.80;1.15;;;19.90;99.90;;;;;;5092796;28;20680;-59
2022/06/02 11:04:59;;;;;;;2.42;1.55;;;20.30;99.90;;;;;;5092769;28;20254;-59
2022/06/02 11:07:51;;;;;;;2.42;1.40;;;19.90;99.90;;;;;;5092942;28;20178;-57
2022/06/02 11:10:29;;;;;;;2.00;1.50;;;19.20;99.90;;;;;;5092806;28;20191;-59
2022/06/02 11:13:25;;;;;;;2.47;1.50;;;19.40;99.90;;;;;;5092672;28;20187;-59
2022/06/02 11:16:08;;;;;;;1.65;1.20;;;19.80;99.90;;;;;;5092768;28;20202;-58
2022/06/02 11:19:13;;;;;;;1.20;1.10;;;19.60;99.90;;;;;;5092308;28;20179;-59
2022/06/02 11:21:57;;;;;;;2.88;1.20;;;19.70;99.90;;;;;;5092080;28;20180;-59
2022/06/02 11:25:00;;;;;;;3.38;1.83;;;19.90;99.90;;;;;;5092184;28;20171;-59
2022/06/02 11:27:49;;;;;;;3.60;1.10;;;19.90;99.90;;;;;;5092509;28;20163;-58
2022/06/02 11:30:42;;;;;;;7.78;1.60;;;20.10;99.90;;;;;;5092065;28;20167;-59
2022/06/02 11:33:35;;;;;;;2.65;1.33;;;20.10;99.90;;;;;;5091968;28;20505;-59
2022/06/02 11:36:10;;;;;;;7.80;1.58;;;20.40;99.90;;;;;;5092222;28;20172;-58
2022/06/02 11:39:00;;;;;;;2.42;1.50;;;20.40;99.90;;;;;;5092338;28;20190;-58
2022/06/02 11:41:35;;;;;;;2.03;1.17;;;20.40;99.90;;;;;;5091960;28;20168;-58
2022/06/02 11:44:55;;;;;;;2.80;1.40;;;20.20;99.90;;;;;;5091992;28;20179;-58
2022/06/02 11:47:49;;;;;;;3.50;1.38;;;19.90;99.90;;;;;;5069430;28;20256;-58
2022/06/02 11:50:50;;;;;;;2.00;1.50;;;20.10;99.90;;;;;;5075323;28;20184;-58
2022/06/02 11:53:31;;;;;;;2.55;1.10;;;20.20;99.90;;;;;;5091692;28;20164;-58
2022/06/02 11:56:21;;;;;;;1.90;1.20;;;19.60;99.90;;;;;;5091853;28;20643;-58
2022/06/02 11:58:52;;;;;;;2.05;1.20;;;19.80;99.90;;;;;;5088689;28;20274;-58
2022/06/02 12:01:37;;;;;;;1.85;1.00;;;17.90;99.90;;;;;;5090846;28;20216;-58
2022/06/02 12:04:21;;;;;;;1.88;1.27;;;19.40;99.90;;;;;;5091884;28;20160;-58
2022/06/02 12:07:16;;;;;;;2.38;1.20;;;19.60;99.90;;;;;;5091471;28;20179;-59
2022/06/02 12:09:58;;;;;;;2.83;1.00;;;19.50;99.90;;;;;;5091281;28;20647;-59
2022/06/02 12:12:24;;;;;;;4.78;1.17;;;;;;;;;;5091602;28;20226;-59
2022/06/02 12:15:15;;;;;;;2.00;1.17;;;19.90;99.90;;;;;;5091520;28;20168;-59
2022/06/02 12:17:57;;;;;;;1.27;0.95;;;20.10;99.90;;;;;;5091584;28;20164;-58
2022/06/02 12:20:45;;;;;;;2.33;1.02;;;20.00;99.90;;;;;;5091244;28;20220;-58
2022/06/02 12:23:32;;;;;;;2.75;1.10;;;20.80;99.90;;;;;;5091492;28;20182;-59
2022/06/02 12:25:58;;;;;;;3.28;1.10;;;;;;;;;;5091255;28;20190;-59
2022/06/02 12:28:38;;;;;;;2.40;1.10;;;21.90;99.90;;;;;;5091172;28;20171;-59
2022/06/02 12:31:32;;;;;;;6.72;1.10;;;21.50;99.90;;;;;;5091143;28;20229;-59
2022/06/02 12:34:17;;;;;;;1.38;1.00;;;20.70;99.90;;;;;;5091359;28;20203;-58
2022/06/02 12:36:47;;;;;;;1.65;1.00;;;20.50;99.90;;;;;;5091178;28;20171;-59
2022/06/02 12:39:43;;;;;;;1.98;0.80;;;20.40;99.90;;;;;;5091135;28;20179;-59
2022/06/02 12:42:23;;;;;;;1.77;1.00;;;21.40;99.90;;;;;;5091132;28;20191;-59
2022/06/02 12:44:50;;;;;;;1.30;0.95;;;;;;;;;;5091098;28;20179;-59
2022/06/02 12:47:25;;;;;;;2.78;1.08;;;22.30;99.90;;;;;;5091304;28;20179;-59
2022/06/02 12:50:22;;;;;;;1.33;1.00;;;22.10;99.90;;;;;;5091002;28;20171;-59
2022/06/02 12:52:59;;;;;;;1.75;0.90;;;22.00;99.90;;;;;;5090954;28;20186;-59
2022/06/02 12:56:00;;;;;;;2.20;1.13;;;22.60;99.90;;;;;;5090923;28;20182;-59
2022/06/02 12:58:26;;;;;;;1.95;1.00;;;;;;;;;;5079274;28;20186;-59
2022/06/02 13:01:17;;;;;;;1.83;1.02;;;22.30;99.90;;;;;;5090794;28;20180;-59
2022/06/02 13:04:01;;;;;;;2.83;0.70;;;21.60;99.90;;;;;;5090779;28;20194;-60
2022/06/02 13:06:35;;;;;;;1.83;1.10;;;21.20;99.90;;;;;;5090667;28;20175;-59
2022/06/02 13:09:39;;;;;;;2.05;0.93;;;21.20;99.90;;;;;;5090690;28;20174;-59
2022/06/02 13:12:26;;;;;;;3.25;0.90;;;21.10;99.90;;;;;;5090421;28;20229;-59
2022/06/02 13:15:19;;;;;;;3.38;1.02;;;20.80;99.90;;;;;;5097241;28;20285;-60
2022/06/02 13:17:56;;;;;;;1.23;0.77;;;20.90;99.90;;;;;;5097114;28;20164;-59
2022/06/02 13:20:40;;;;;;;3.70;0.70;;;21.00;99.90;;;;;;5097126;28;20223;-59
2022/06/02 13:23:10;;;;;;;3.30;1.05;;;20.60;99.90;;;;;;5097146;28;20174;-59
2022/06/02 13:25:57;;;;;;;1.75;0.80;;;20.40;99.90;;;;;;5097365;28;20243;-59
2022/06/02 13:28:28;;;;;;;4.97;1.00;;;19.50;99.90;;;;;;5097045;28;20696;-59
2022/06/02 13:31:13;;;;;;;3.53;1.17;;;20.90;99.90;;;;;;5096869;28;20226;-59
2022/06/02 13:34:10;;;;;;;1.50;0.93;;;21.00;99.90;;;;;;5097010;28;20168;-59
2022/06/02 13:36:54;;;;;;;3.60;0.80;;;20.90;99.90;;;;;;5097105;28;20190;-59
2022/06/02 13:39:43;;;;;;;0.75;0.55;;;20.80;99.90;;;;;;5097038;28;20179;-59
2022/06/02 13:42:25;;;;;;;2.05;0.70;;;20.60;99.90;;;;;;5097208;28;20167;-59
2022/06/02 13:44:59;;;;;;;2.58;0.68;;;20.50;99.90;;;;;;5096964;28;20179;-59
2022/06/02 13:47:36;;;;;;;2.13;0.70;;;20.70;99.90;;;;;;5096835;28;20265;-59
2022/06/02 13:50:20;;;;;;;1.98;0.80;;;20.20;99.90;;;;;;5097015;28;20243;-59
2022/06/02 13:53:06;;;;;;;1.35;0.80;;;20.90;99.90;;;;;;5096817;28;20695;-59
2022/06/02 13:59:00;;;;;;;0.88;0.55;;;24.10;99.90;;;;;;5087302;28;20635;-59
2022/06/02 14:01:58;;;;;;;1.65;1.17;;;24.60;99.90;;;;;;5096675;28;20171;-60
2022/06/02 14:05:06;;;;;;;2.00;1.10;;;24.80;99.90;;;;;;5096324;28;20172;-60
2022/06/02 14:07:42;;;;;;;3.70;0.80;;;26.00;99.90;;;;;;5076622;28;20211;-60
2022/06/02 14:10:23;;;;;;;1.70;0.90;;;26.40;99.90;;;;;;5096870;28;20178;-59
2022/06/02 14:13:03;;;;;;;2.95;0.90;;;26.30;99.90;;;;;;5096808;28;20270;-59
2022/06/02 14:15:43;;;;;;;1.52;0.98;;;27.10;99.90;;;;;;5096547;28;20179;-60
2022/06/02 14:18:30;;;;;;;1.58;0.80;;;25.70;99.90;;;;;;5096755;28;20201;-60
2022/06/02 14:21:33;;;;;;;2.47;0.95;;;25.60;99.90;;;;;;5096510;28;20223;-60
2022/06/02 14:24:31;;;;;;;1.83;0.93;;;24.00;99.90;;;;;;5095918;28;20172;-59
2022/06/02 14:27:19;;;;;;;3.70;1.10;;;24.40;99.90;;;;;;5093478;28;20180;-59
2022/06/02 14:30:12;;;;;;;2.53;1.20;;;24.70;99.90;;;;;;5093450;28;20187;-59
2022/06/02 14:32:53;;;;;;;2.22;0.95;;;23.60;99.90;;;;;;5093563;28;20256;-60
2022/06/02 14:35:50;;;;;;;3.30;0.90;;;23.30;99.90;;;;;;5093340;28;20644;-59
2022/06/02 14:38:43;;;;;;;2.00;1.00;;;22.80;99.90;;;;;;5093258;28;20199;-59